Time;durP1;ratioP1;P1;durP2;ratioP2;P2;SDS_P1;SDS_P2;PMS_P1;PMS_P2;Temp;Humidity;BMP_temperature;BMP_pressure;BME280_temperature;BME280_humidity;BME280_pressure;Samples;Min_cycle;Max_cycle;Signal;HPM_P1;HPM_P2
2023/03/27 00:02:23;;;;;;;1.75;0.55;;;;;;;;;;5095940;28;20331;-74
2023/03/27 00:04:49;;;;;;;3.75;0.80;;;;;;;;;;5104048;28;20043;-74
2023/03/27 00:07:15;;;;;;;2.50;0.40;;;;;;;;;;5110863;28;20055;-74
2023/03/27 00:09:43;;;;;;;2.00;0.55;;;;;;;;;;5076264;28;20320;-72
2023/03/27 00:12:09;;;;;;;2.10;0.60;;;;;;;;;;5089970;28;20020;-74
2023/03/27 00:14:35;;;;;;;0.88;0.75;;;;;;;;;;5094543;28;20035;-73
2023/03/27 00:17:01;;;;;;;4.90;0.40;;;;;;;;;;5091788;28;20048;-73
2023/03/27 00:19:27;;;;;;;0.52;0.50;;;;;;;;;;5090767;28;20148;-75
2023/03/27 00:21:53;;;;;;;2.92;0.32;;;;;;;;;;5095270;28;20091;-73
2023/03/27 00:24:21;;;;;;;0.73;0.70;;;;;;;;;;5098104;28;20085;-73
2023/03/27 00:26:47;;;;;;;1.15;1.15;;;;;;;;;;5094065;28;20024;-72
2023/03/27 00:29:13;;;;;;;1.27;1.00;;;;;;;;;;5098127;28;20031;-73
2023/03/27 00:31:39;;;;;;;1.30;0.40;;;;;;;;;;5101725;28;20248;-78
2023/03/27 00:34:05;;;;;;;0.85;0.80;;;;;;;;;;5101568;28;20302;-81
2023/03/27 00:36:31;;;;;;;1.80;0.88;;;;;;;;;;5083133;28;20023;-81
2023/03/27 00:38:57;;;;;;;1.75;0.70;;;;;;;;;;5101471;28;20047;-81
2023/03/27 00:41:23;;;;;;;0.30;0.30;;;;;;;;;;5102098;28;20046;-80
2023/03/27 00:43:50;;;;;;;1.10;0.65;;;;;;;;;;5083732;28;20311;-81
2023/03/27 00:46:16;;;;;;;2.25;0.88;;;;;;;;;;5082740;28;20215;-73
2023/03/27 00:48:43;;;;;;;1.95;0.47;;;;;;;;;;5100687;28;20071;-73
2023/03/27 00:51:09;;;;;;;1.40;0.57;;;;;;;;;;5101015;28;20020;-75
2023/03/27 00:53:36;;;;;;;0.85;0.60;;;;;;;;;;5082079;28;20058;-74
2023/03/27 00:56:03;;;;;;;0.90;0.88;;;;;;;;;;5101411;28;20020;-74
2023/03/27 00:58:31;;;;;;;1.40;0.50;;;;;;;;;;5100632;28;20043;-73
2023/03/27 01:00:57;;;;;;;2.67;0.70;;;;;;;;;;5100412;28;20016;-73
2023/03/27 01:03:25;;;;;;;0.90;0.63;;;;;;;;;;5082724;28;20031;-73
2023/03/27 01:05:52;;;;;;;0.50;0.50;;;;;;;;;;5082018;28;20028;-74
2023/03/27 01:08:19;;;;;;;2.40;0.90;;;;;;;;;;5082941;28;20028;-75
2023/03/27 01:11:04;;;;;;;0.40;0.40;;;;;;;;;;5082913;28;20149;-74
2023/03/27 01:13:39;;;;;;;0.45;0.45;;;;;;;;;;5100290;28;20312;-73
2023/03/27 01:16:17;;;;;;;1.65;0.90;;;;;;;;;;5100068;28;20028;-73
2023/03/27 01:18:57;;;;;;;0.77;0.70;;;;;;;;;;5100543;28;20043;-74
2023/03/27 01:21:42;;;;;;;0.77;0.47;;;;;;;;;;5100891;28;20027;-79
2023/03/27 01:24:08;;;;;;;0.50;0.50;;;;;;;;;;5101384;28;20020;-73
2023/03/27 01:26:56;;;;;;;1.02;0.93;;;;;;;;;;5101215;28;20027;-75
2023/03/27 01:29:29;;;;;;;0.53;0.40;;;;;;;;;;5082813;28;20232;-74
2023/03/27 01:32:14;;;;;;;2.47;0.50;;;;;;;;;;5082635;28;20032;-73
2023/03/27 01:34:58;;;;;;;0.30;0.30;;;;;;;;;;5082045;28;20039;-73
2023/03/27 01:37:36;;;;;;;1.95;1.10;;;;;;;;;;5100573;28;20063;-73
2023/03/27 01:40:08;;;;;;;1.10;0.60;;;;;;;;;;5100062;28;20398;-74
2023/03/27 01:42:40;;;;;;;1.15;0.63;;;;;;;;;;5099811;28;20043;-73
2023/03/27 01:45:17;;;;;;;3.75;1.25;;;;;;;;;;5100034;28;20020;-73
2023/03/27 01:47:49;;;;;;;2.88;0.70;;;;;;;;;;5099988;28;20032;-76
2023/03/27 01:50:23;;;;;;;1.15;0.70;;;;;;;;;;5099254;28;20012;-73
2023/03/27 01:52:53;;;;;;;0.30;0.30;;;;;;;;;;5080372;28;20254;-73
2023/03/27 01:55:19;;;;;;;;;;;;;;;;;;5098521;28;20076;-73
2023/03/27 01:57:48;;;;;;;1.42;0.68;;;;;;;;;;5079250;28;19986;-73
2023/03/27 02:00:16;;;;;;;0.60;0.60;;;;;;;;;;5098159;28;20091;-73
2023/03/27 02:03:03;;;;;;;0.60;0.60;;;;;;;;;;5098505;28;20335;-74
2023/03/27 02:05:29;;;;;;;1.52;1.05;;;;;;;;;;5097869;28;20028;-73
2023/03/27 02:07:59;;;;;;;1.17;0.80;;;;;;;;;;5079718;28;20217;-73
2023/03/27 02:10:25;;;;;;;;;;;;;;;;;;5079842;28;20028;-73
2023/03/27 02:12:56;;;;;;;1.65;0.65;;;;;;;;;;5098488;28;20177;-73
2023/03/27 02:15:27;;;;;;;1.20;1.02;;;;;;;;;;5099457;28;20298;-73
2023/03/27 02:18:03;;;;;;;1.48;1.38;;;;;;;;;;5081192;28;20123;-74
2023/03/27 02:20:29;;;;;;;0.80;0.80;;;;;;;;;;5099009;28;20020;-73
2023/03/27 02:22:59;;;;;;;1.48;0.65;;;;;;;;;;5098799;28;20032;-74
2023/03/27 02:25:34;;;;;;;0.65;0.65;;;;;;;;;;5081010;28;20016;-73
2023/03/27 02:28:03;;;;;;;0.88;0.82;;;;;;;;;;5098858;28;20087;-73
2023/03/27 02:30:32;;;;;;;1.10;1.00;;;;;;;;;;5081308;28;20017;-74
2023/03/27 02:33:01;;;;;;;1.42;1.33;;;;;;;;;;5099009;28;20051;-73
2023/03/27 02:35:33;;;;;;;0.70;0.70;;;;;;;;;;5099154;28;20062;-72
2023/03/27 02:38:12;;;;;;;1.00;1.00;;;;;;;;;;5099288;28;20297;-73
2023/03/27 02:40:39;;;;;;;;;;;;;;;;;;5099305;28;20254;-73
2023/03/27 02:43:06;;;;;;;1.48;1.33;;;;;;;;;;5081766;28;19935;-73
2023/03/27 02:45:50;;;;;;;1.02;1.02;;;;;;;;;;5098989;28;20024;-73
2023/03/27 02:48:19;;;;;;;3.30;2.15;;;;;;;;;;5099930;28;20020;-74
2023/03/27 02:50:54;;;;;;;1.83;1.73;;;;;;;;;;5080886;28;20069;-72
2023/03/27 02:53:22;;;;;;;1.58;1.48;;;;;;;;;;5098481;28;20079;-73
2023/03/27 02:55:51;;;;;;;1.60;1.35;;;;;;;;;;5080962;28;20521;-74
2023/03/27 02:58:19;;;;;;;1.75;1.65;;;;;;;;;;5099015;28;20055;-74
2023/03/27 03:00:47;;;;;;;2.67;2.15;;;;;;;;;;5080931;28;20016;-73
2023/03/27 03:03:20;;;;;;;1.70;1.58;;;;;;;;;;5081137;28;20200;-73
2023/03/27 03:05:46;;;;;;;2.78;1.73;;;;;;;;;;5080950;28;20024;-73
2023/03/27 03:08:13;;;;;;;2.38;1.77;;;;;;;;;;5080793;28;20023;-73
2023/03/27 03:10:46;;;;;;;2.90;1.92;;;;;;;;;;5098826;28;20021;-73
2023/03/27 03:13:12;;;;;;;2.53;1.73;;;;;;;;;;5099013;28;20027;-75
2023/03/27 03:15:38;;;;;;;3.33;2.40;;;;;;;;;;5080445;28;20028;-74
2023/03/27 03:18:04;;;;;;;2.50;2.00;;;;;;;;;;5103998;28;20108;-76
2023/03/27 03:20:30;;;;;;;7.63;2.00;;;;;;;;;;5086215;28;20101;-75
2023/03/27 03:22:57;;;;;;;3.47;2.47;;;;;;;;;;5103201;28;20127;-77
2023/03/27 03:25:24;;;;;;;2.58;1.88;;;;;;;;;;5103959;28;20026;-75
2023/03/27 03:27:56;;;;;;;2.53;2.30;;;;;;;;;;5103600;28;20036;-76
2023/03/27 03:30:23;;;;;;;2.97;2.03;;;;;;;;;;5084315;28;20087;-77
2023/03/27 03:32:49;;;;;;;3.22;2.05;;;;;;;;;;5102591;28;20355;-76
2023/03/27 03:35:15;;;;;;;3.40;2.40;;;;;;;;;;5101049;28;20103;-77
2023/03/27 03:37:41;;;;;;;2.40;2.03;;;;;;;;;;5098787;28;20077;-75
2023/03/27 03:40:10;;;;;;;3.92;2.28;;;;;;;;;;5100861;28;20354;-77
2023/03/27 03:42:37;;;;;;;4.60;2.75;;;;;;;;;;5084459;28;20027;-74
2023/03/27 03:45:03;;;;;;;3.00;2.10;;;;;;;;;;5084315;28;20030;-75
2023/03/27 03:47:29;;;;;;;3.03;2.22;;;;;;;;;;5102277;28;20038;-76
2023/03/27 03:49:55;;;;;;;3.97;2.63;;;;;;;;;;5102797;28;20032;-75
2023/03/27 03:52:24;;;;;;;6.10;3.10;;;;;;;;;;5101977;28;20377;-77
2023/03/27 03:54:53;;;;;;;3.72;2.13;;;;;;;;;;5102223;28;20044;-75
2023/03/27 03:57:19;;;;;;;2.97;2.30;;;;;;;;;;5083008;28;20131;-80
2023/03/27 03:59:46;;;;;;;6.60;3.53;;;;;;;;;;5099463;28;20028;-74
2023/03/27 04:02:26;;;;;;;5.53;3.03;;;;;;;;;;5079873;28;20020;-73
2023/03/27 04:04:53;;;;;;;4.13;2.60;;;;;;;;;;5079790;28;20091;-73
2023/03/27 04:07:22;;;;;;;3.60;2.53;;;;;;;;;;5080181;28;20024;-73
2023/03/27 04:09:49;;;;;;;3.20;2.58;;;;;;;;;;5072875;28;20246;-74
2023/03/27 04:12:15;;;;;;;2.80;2.60;;;;;;;;;;5074068;28;20024;-73
2023/03/27 04:14:41;;;;;;;4.07;2.72;;;;;;;;;;5073476;28;20055;-73
2023/03/27 04:17:07;;;;;;;3.78;2.95;;;;;;;;;;5090594;28;20083;-74
2023/03/27 04:19:33;;;;;;;4.28;2.83;;;;;;;;;;5092285;28;20024;-75
2023/03/27 04:22:03;;;;;;;4.75;3.08;;;;;;;;;;5090913;28;20468;-73
2023/03/27 04:24:29;;;;;;;7.88;3.55;;;;;;;;;;5092703;28;20016;-74
2023/03/27 04:26:57;;;;;;;4.75;3.15;;;;;;;;;;5094434;28;20110;-73
2023/03/27 04:29:23;;;;;;;5.03;2.70;;;;;;;;;;5070669;28;20031;-75
2023/03/27 04:31:49;;;;;;;3.65;2.90;;;;;;;;;;5071977;28;20055;-74
2023/03/27 04:34:19;;;;;;;5.22;3.85;;;;;;;;;;5088887;28;20020;-75
2023/03/27 04:36:45;;;;;;;3.65;2.88;;;;;;;;;;5090383;28;20023;-74
2023/03/27 04:39:11;;;;;;;4.55;3.03;;;;;;;;;;5090160;28;20504;-73
2023/03/27 04:41:37;;;;;;;4.18;2.90;;;;;;;;;;5088362;28;20028;-75
2023/03/27 04:44:04;;;;;;;3.58;2.67;;;;;;;;;;5088649;28;20024;-75
2023/03/27 04:46:30;;;;;;;4.65;3.10;;;;;;;;;;5089734;28;20020;-74
2023/03/27 04:48:56;;;;;;;3.13;2.63;;;;;;;;;;5088204;28;20020;-75
2023/03/27 04:51:25;;;;;;;4.63;2.95;;;;;;;;;;5087628;28;20054;-73
2023/03/27 04:53:51;;;;;;;5.90;4.05;;;;;;;;;;5084684;28;20300;-74
2023/03/27 04:56:17;;;;;;;14.93;4.53;;;;;;;;;;5090858;28;20038;-74
2023/03/27 04:58:45;;;;;;;3.92;2.70;;;;;;;;;;5087142;28;20032;-73
2023/03/27 05:01:11;;;;;;;3.58;2.53;;;;;;;;;;5079057;28;20499;-73
2023/03/27 05:03:39;;;;;;;2.95;2.40;;;;;;;;;;5108573;28;20047;-72
2023/03/27 05:06:05;;;;;;;2.38;2.00;;;;;;;;;;5108559;28;20028;-73
2023/03/27 05:08:32;;;;;;;4.05;1.90;;;;;;;;;;5089148;28;20349;-74
2023/03/27 05:10:58;;;;;;;2.42;1.85;;;;;;;;;;5089556;28;20019;-73
2023/03/27 05:13:24;;;;;;;3.15;2.42;;;;;;;;;;5081049;28;20042;-72
2023/03/27 05:15:51;;;;;;;2.20;1.80;;;;;;;;;;5070061;28;20379;-72
2023/03/27 05:18:17;;;;;;;2.72;1.90;;;;;;;;;;5087409;28;20043;-72
2023/03/27 05:20:47;;;;;;;3.88;1.90;;;;;;;;;;5087040;28;20042;-71
2023/03/27 05:23:13;;;;;;;2.03;1.40;;;;;;;;;;5086881;28;20420;-71
2023/03/27 05:25:41;;;;;;;2.97;1.63;;;;;;;;;;5068881;28;20032;-71
2023/03/27 05:28:07;;;;;;;1.85;1.33;;;;;;;;;;5068185;28;20024;-73
2023/03/27 05:30:33;;;;;;;1.58;1.48;;;;;;;;;;5087009;28;20240;-73
2023/03/27 05:32:59;;;;;;;1.85;1.48;;;;;;;;;;5098734;28;20507;-75
2023/03/27 05:35:27;;;;;;;1.65;1.20;;;;;;;;;;5108112;28;20042;-72
2023/03/27 05:37:53;;;;;;;1.90;1.63;;;;;;;;;;5108431;28;20032;-76
2023/03/27 05:40:26;;;;;;;1.50;0.98;;;;;;;;;;5088616;28;20023;-83
2023/03/27 05:42:53;;;;;;;6.32;1.10;;;;;;;;;;5088656;28;20070;-72
2023/03/27 05:45:20;;;;;;;2.40;1.15;;;;;;;;;;5106422;28;20112;-79
2023/03/27 05:47:53;;;;;;;1.90;1.20;;;;;;;;;;5088442;28;20257;-72
2023/03/27 05:50:21;;;;;;;4.57;1.20;;;;;;;;;;5094584;28;20020;-72
2023/03/27 05:52:47;;;;;;;1.63;1.05;;;;;;;;;;5068702;28;20031;-73
2023/03/27 05:55:13;;;;;;;2.47;1.10;;;;;;;;;;5087031;28;20020;-74
2023/03/27 05:57:40;;;;;;;1.85;1.20;;;;;;;;;;5087501;28;20037;-74
2023/03/27 06:00:15;;;;;;;1.70;1.00;;;;;;;;;;5087303;28;20127;-73
2023/03/27 06:02:45;;;;;;;2.05;1.10;;;;;;;;;;5068869;28;20266;-75
2023/03/27 06:05:13;;;;;;;1.48;1.23;;;;;;;;;;5068512;28;20039;-74
2023/03/27 06:07:39;;;;;;;3.42;2.05;;;;;;;;;;5067775;28;20028;-74
2023/03/27 06:10:06;;;;;;;1.08;1.05;;;;;;;;;;5068437;28;20032;-73
2023/03/27 06:12:33;;;;;;;3.22;2.17;;;;;;;;;;5085969;28;20103;-73
2023/03/27 06:14:59;;;;;;;1.48;1.27;;;;;;;;;;5085689;28;20024;-73
2023/03/27 06:17:25;;;;;;;3.47;0.85;;;;;;;;;;5068121;28;20051;-76
2023/03/27 06:19:51;;;;;;;3.90;1.15;;;;;;;;;;5068089;28;20036;-80
2023/03/27 06:22:17;;;;;;;2.60;1.33;;;;;;;;;;5067668;28;20420;-78
2023/03/27 06:24:43;;;;;;;1.67;1.40;;;;;;;;;;5068248;28;20031;-77
2023/03/27 06:27:09;;;;;;;2.13;0.82;;;;;;;;;;5087964;28;20032;-76
2023/03/27 06:29:36;;;;;;;3.40;1.88;;;;;;;;;;5088155;28;20120;-74
2023/03/27 06:32:03;;;;;;;2.83;1.00;;;;;;;;;;5089134;28;20016;-74
2023/03/27 06:34:29;;;;;;;2.35;1.23;;;;;;;;;;5093988;28;20020;-73
2023/03/27 06:36:55;;;;;;;1.25;1.13;;;;;;;;;;5088515;28;20032;-75
2023/03/27 06:39:21;;;;;;;5.38;1.60;;;;;;;;;;5090003;28;20484;-76
2023/03/27 06:41:47;;;;;;;2.03;1.80;;;;;;;;;;5095141;28;20095;-77
2023/03/27 06:44:13;;;;;;;1.55;1.08;;;;;;;;;;5079511;28;20024;-77
2023/03/27 06:46:39;;;;;;;2.60;1.58;;;;;;;;;;5090280;28;20101;-78
2023/03/27 06:49:05;;;;;;;2.80;1.30;;;;;;;;;;5070310;28;20190;-73
2023/03/27 06:51:31;;;;;;;3.72;2.90;;;;;;;;;;5097744;28;20032;-75
2023/03/27 06:53:58;;;;;;;8.38;2.92;;;;;;;;;;5094742;28;20379;-73
2023/03/27 06:56:24;;;;;;;2.05;1.38;;;;;;;;;;5095159;28;20569;-73
2023/03/27 06:58:50;;;;;;;5.40;1.42;;;;;;;;;;5095663;28;20036;-74
2023/03/27 07:01:16;;;;;;;3.38;1.58;;;;;;;;;;5100003;28;20027;-77
2023/03/27 07:03:42;;;;;;;3.17;1.10;;;;;;;;;;5098901;28;20032;-77
2023/03/27 07:06:08;;;;;;;4.38;1.52;;;;;;;;;;5077084;28;20016;-74
2023/03/27 07:08:34;;;;;;;1.75;1.55;;;;;;;;;;5100214;28;20036;-77
2023/03/27 07:11:02;;;;;;;2.55;1.55;;;;;;;;;;5095949;28;20028;-78
2023/03/27 07:13:29;;;;;;;8.55;2.20;;;;;;;;;;5102949;28;20028;-77
2023/03/27 07:15:55;;;;;;;2.40;1.58;;;;;;;;;;5094565;28;20058;-76
2023/03/27 07:18:21;;;;;;;10.95;1.67;;;;;;;;;;5096446;28;20090;-74
2023/03/27 07:20:49;;;;;;;1.80;1.13;;;;;;;;;;5100806;28;20024;-74
2023/03/27 07:23:15;;;;;;;7.22;1.13;;;;;;;;;;5081859;28;20032;-73
2023/03/27 07:25:41;;;;;;;3.88;1.50;;;;;;;;;;5100400;28;20366;-75
2023/03/27 07:28:19;;;;;;;2.97;1.40;;;;;;;;;;5102325;28;20012;-74
2023/03/27 07:30:46;;;;;;;1.48;1.38;;;;;;;;;;5100822;28;20034;-76
2023/03/27 07:33:12;;;;;;;3.95;1.08;;;;;;;;;;5086369;28;20024;-74
2023/03/27 07:35:45;;;;;;;4.60;2.28;;;;;;;;;;5109741;28;20305;-74
2023/03/27 07:38:12;;;;;;;4.22;1.10;;;;;;;;;;5088460;28;20039;-74
2023/03/27 07:40:39;;;;;;;7.80;1.30;;;;;;;;;;5081340;28;20027;-73
2023/03/27 07:43:08;;;;;;;3.20;1.23;;;;;;;;;;5095316;28;20032;-74
2023/03/27 07:45:34;;;;;;;3.55;1.02;;;;;;;;;;5094469;28;20099;-74
2023/03/27 07:48:05;;;;;;;11.07;1.92;;;;;;;;;;5093944;28;20052;-73
2023/03/27 07:50:32;;;;;;;7.35;1.90;;;;;;;;;;5108389;28;20024;-72
2023/03/27 07:52:58;;;;;;;3.60;1.30;;;;;;;;;;5118633;28;20106;-73
2023/03/27 07:55:28;;;;;;;8.60;1.40;;;;;;;;;;5096872;28;20036;-72
2023/03/27 07:57:54;;;;;;;4.93;1.50;;;;;;;;;;5114870;28;20031;-74
2023/03/27 08:00:24;;;;;;;5.57;1.30;;;;;;;;;;5130626;28;20024;-76
2023/03/27 08:02:50;;;;;;;6.38;2.70;;;;;;;;;;5124296;28;20028;-74
2023/03/27 08:05:17;;;;;;;1.83;1.33;;;;;;;;;;5102419;28;20035;-77
2023/03/27 08:07:44;;;;;;;3.20;1.50;;;;;;;;;;5119491;28;20034;-74
2023/03/27 08:10:11;;;;;;;5.95;1.45;;;;;;;;;;5115295;28;20020;-72
2023/03/27 08:12:37;;;;;;;13.30;2.45;;;;;;;;;;5119877;28;20235;-73
2023/03/27 08:15:04;;;;;;;5.95;3.03;;;;;;;;;;5123000;28;20073;-74
2023/03/27 08:17:32;;;;;;;9.48;2.05;;;;;;;;;;5117531;28;20036;-82
2023/03/27 08:19:59;;;;;;;8.98;1.27;;;;;;;;;;5111121;28;20023;-83
2023/03/27 08:22:25;;;;;;;4.05;1.17;;;;;;;;;;5091952;28;20057;-73
2023/03/27 08:24:51;;;;;;;8.43;2.35;;;;;;;;;;5110045;28;20027;-73
2023/03/27 08:27:17;;;;;;;5.20;1.60;;;;;;;;;;5114232;28;20019;-77
2023/03/27 08:29:43;;;;;;;4.22;1.85;;;;;;;;;;5093885;28;20372;-86
2023/03/27 08:32:10;;;;;;;10.68;2.50;;;;;;;;;;5096617;28;20023;-74
2023/03/27 08:34:36;;;;;;;3.22;1.10;;;;;;;;;;5112717;28;20030;-83
2023/03/27 08:37:03;;;;;;;6.28;1.02;;;;;;;;;;5118266;28;20024;-74
2023/03/27 08:39:29;;;;;;;12.43;1.98;;;;;;;;;;5117273;28;20024;-83
2023/03/27 08:41:56;;;;;;;3.55;1.83;;;;;;;;;;5096716;28;20024;-73
2023/03/27 08:44:24;;;;;;;6.75;1.23;;;;;;;;;;5101027;28;20043;-73
2023/03/27 08:46:53;;;;;;;5.88;2.10;;;;;;;;;;5117779;28;20027;-80
2023/03/27 08:49:20;;;;;;;3.80;2.03;;;;;;;;;;5119113;28;20028;-77
2023/03/27 08:51:48;;;;;;;6.80;1.95;;;;;;;;;;5097246;28;20057;-79
2023/03/27 08:54:33;;;;;;;8.00;1.40;;;;;;;;;;5092747;28;20058;-72
2023/03/27 08:57:00;;;;;;;6.15;1.30;;;;;;;;;;5096537;28;20020;-75
2023/03/27 08:59:27;;;;;;;4.80;1.80;;;;;;;;;;5092965;28;20039;-75
2023/03/27 09:01:59;;;;;;;3.78;1.20;;;;;;;;;;5115669;28;20020;-77
2023/03/27 09:04:31;;;;;;;5.78;2.75;;;;;;;;;;5101572;28;20313;-73
2023/03/27 09:07:03;;;;;;;7.05;3.65;;;;;;;;;;5123283;28;20075;-77
2023/03/27 09:09:46;;;;;;;5.50;2.35;;;;;;;;;;5103500;28;20494;-73
2023/03/27 09:12:26;;;;;;;2.58;1.83;;;;;;;;;;5105606;28;20034;-73
2023/03/27 09:14:54;;;;;;;3.47;1.50;;;;;;;;;;5128168;28;20020;-73
2023/03/27 09:17:26;;;;;;;6.78;2.20;;;;;;;;;;5127142;28;20122;-73
2023/03/27 09:19:57;;;;;;;1.60;1.50;;;;;;;;;;5107770;28;20042;-75
2023/03/27 09:22:30;;;;;;;4.50;1.73;;;;;;;;;;5101020;28;20561;-75
2023/03/27 09:25:02;;;;;;;2.95;1.30;;;;;;;;;;5122952;28;20024;-74
2023/03/27 09:27:31;;;;;;;10.95;3.72;;;;;;;;;;5124987;28;20023;-74
2023/03/27 09:30:13;;;;;;;3.85;2.45;;;;;;;;;;5118400;28;20015;-73
2023/03/27 09:32:41;;;;;;;3.53;2.40;;;;;;;;;;5090753;28;20035;-74
2023/03/27 09:35:12;;;;;;;4.80;1.98;;;;;;;;;;5120753;28;20496;-73
2023/03/27 09:37:38;;;;;;;4.28;2.08;;;;;;;;;;5121585;28;20024;-73
2023/03/27 09:40:11;;;;;;;1.70;1.20;;;;;;;;;;5094334;28;20059;-75
2023/03/27 09:42:39;;;;;;;3.20;1.42;;;;;;;;;;5107461;28;20031;-73
2023/03/27 09:45:08;;;;;;;15.40;2.35;;;;;;;;;;5098907;28;20035;-72
2023/03/27 09:47:43;;;;;;;8.38;1.77;;;;;;;;;;5117461;28;20012;-72
2023/03/27 09:50:23;;;;;;;5.55;2.03;;;;;;;;;;5105828;28;20032;-73
2023/03/27 09:52:51;;;;;;;5.80;1.55;;;;;;;;;;5100034;28;20018;-73
2023/03/27 09:55:23;;;;;;;6.53;2.47;;;;;;;;;;5099019;28;20077;-76
2023/03/27 09:57:50;;;;;;;3.92;1.67;;;;;;;;;;5075631;28;20541;-80
2023/03/27 10:00:33;;;;;;;9.15;1.50;;;;;;;;;;5073949;28;20024;-79
2023/03/27 10:03:02;;;;;;;2.35;1.27;;;;;;;;;;5092386;28;20058;-75
2023/03/27 10:05:30;;;;;;;2.63;1.27;;;;;;;;;;5089458;28;20167;-80
2023/03/27 10:07:57;;;;;;;5.05;1.90;;;;;;;;;;5086888;28;20054;-77
2023/03/27 10:10:25;;;;;;;5.72;1.80;;;;;;;;;;5089753;28;20059;-85
2023/03/27 10:13:00;;;;;;;12.27;3.13;;;;;;;;;;5090232;28;20024;-79
2023/03/27 10:15:34;;;;;;;9.82;1.75;;;;;;;;;;5075333;28;20504;-86
2023/03/27 10:18:03;;;;;;;8.85;2.33;;;;;;;;;;5069465;28;20056;-74
2023/03/27 10:20:31;;;;;;;7.53;2.55;;;;;;;;;;5085171;28;20039;-74
2023/03/27 10:23:02;;;;;;;2.20;1.45;;;;;;;;;;5086772;28;20031;-74
2023/03/27 10:25:40;;;;;;;7.00;2.80;;;;;;;;;;5082921;28;20024;-77
2023/03/27 10:28:22;;;;;;;4.23;1.60;;;;;;;;;;5103268;28;20045;-73
2023/03/27 10:31:01;;;;;;;4.25;1.95;;;;;;;;;;5093640;28;20028;-80
2023/03/27 10:33:30;;;;;;;3.22;1.40;;;;;;;;;;5100858;28;20123;-80
2023/03/27 10:35:57;;;;;;;1.77;1.67;;;;;;;;;;5100614;28;20032;-74
2023/03/27 10:38:23;;;;;;;5.13;1.48;;;;;;;;;;5101200;28;20044;-74
2023/03/27 10:40:50;;;;;;;4.47;1.45;;;;;;;;;;5095445;28;20028;-82
2023/03/27 10:43:18;;;;;;;5.75;1.80;;;;;;;;;;5076104;28;20425;-76
2023/03/27 10:45:50;;;;;;;1.35;1.25;;;;;;;;;;5099672;28;20079;-77
2023/03/27 10:48:31;;;;;;;5.72;1.20;;;;;;;;;;5072676;28;20035;-79
2023/03/27 10:51:01;;;;;;;4.47;1.73;;;;;;;;;;5084681;28;20032;-79
2023/03/27 10:53:36;;;;;;;2.75;1.27;;;;;;;;;;5072526;28;20036;-86
2023/03/27 10:56:11;;;;;;;3.63;1.88;;;;;;;;;;5088909;28;20028;-83
2023/03/27 10:58:49;;;;;;;2.47;1.15;;;;;;;;;;5088985;28;20120;-76
2023/03/27 11:01:18;;;;;;;4.38;1.95;;;;;;;;;;5094051;28;20476;-84
2023/03/27 11:03:57;;;;;;;11.55;1.73;;;;;;;;;;5092385;28;20024;-73
2023/03/27 11:06:27;;;;;;;1.85;1.02;;;;;;;;;;5092896;28;20047;-87
2023/03/27 11:09:04;;;;;;;3.65;1.58;;;;;;;;;;5087518;28;20022;-73
2023/03/27 11:11:37;;;;;;;2.40;1.20;;;;;;;;;;5086261;28;20038;-82
2023/03/27 11:14:05;;;;;;;8.68;1.45;;;;;;;;;;5087671;28;20024;-82
2023/03/27 11:16:37;;;;;;;4.40;1.05;;;;;;;;;;5090320;28;20412;-80
2023/03/27 11:19:09;;;;;;;2.60;0.95;;;;;;;;;;5090870;28;20123;-81
2023/03/27 11:21:42;;;;;;;3.97;0.90;;;;;;;;;;5093504;28;20238;-82
2023/03/27 11:24:21;;;;;;;2.70;1.33;;;;;;;;;;5094661;28;20025;-83
2023/03/27 11:26:59;;;;;;;4.00;1.20;;;;;;;;;;5087506;28;20063;-86
2023/03/27 11:29:28;;;;;;;9.00;3.38;;;;;;;;;;5086325;28;20024;-80
2023/03/27 11:31:56;;;;;;;4.72;1.17;;;;;;;;;;5088476;28;20016;-82
2023/03/27 11:34:28;;;;;;;9.45;1.85;;;;;;;;;;5089065;28;20028;-85
2023/03/27 11:36:58;;;;;;;3.70;0.95;;;;;;;;;;5090153;28;20020;-74
2023/03/27 11:39:24;;;;;;;;;;;;;;;;;;5081046;28;20032;-74
2023/03/27 11:41:52;;;;;;;3.80;0.80;;;;;;;;;;5094909;28;20279;-73
2023/03/27 11:44:18;;;;;;;3.60;0.80;;;;;;;;;;5071657;28;20020;-85
2023/03/27 11:46:47;;;;;;;2.45;1.02;;;;;;;;;;5074274;28;20020;-77
2023/03/27 11:49:39;;;;;;;3.88;1.05;;;;;;;;;;5075017;28;20463;-85
2023/03/27 11:52:12;;;;;;;5.13;1.00;;;;;;;;;;5089117;28;20118;-81
2023/03/27 11:54:46;;;;;;;2.47;1.38;;;;;;;;;;5113227;28;20095;-79
2023/03/27 11:57:32;;;;;;;2.75;0.80;;;;;;;;;;5093195;28;20024;-74
2023/03/27 12:00:20;;;;;;;3.03;0.90;;;;;;;;;;5094257;28;20027;-78
2023/03/27 12:02:47;;;;;;;1.93;0.70;;;;;;;;;;5109856;28;20061;-77
2023/03/27 12:05:13;;;;;;;1.85;0.80;;;;;;;;;;5093330;28;20054;-79
2023/03/27 12:07:51;;;;;;;2.00;1.00;;;;;;;;;;5113099;28;20476;-82
2023/03/27 12:10:26;;;;;;;3.47;1.45;;;;;;;;;;5092857;28;20024;-79
2023/03/27 12:12:55;;;;;;;1.10;0.60;;;;;;;;;;5094631;28;20070;-73
2023/03/27 12:15:43;;;;;;;3.60;1.33;;;;;;;;;;5094935;28;20375;-75
2023/03/27 12:18:19;;;;;;;4.82;1.23;;;;;;;;;;5113935;28;20051;-85
2023/03/27 12:20:45;;;;;;;1.38;0.80;;;;;;;;;;5111095;28;20141;-74
2023/03/27 12:23:30;;;;;;;0.60;0.50;;;;;;;;;;5092209;28;20504;-79
2023/03/27 12:26:23;;;;;;;3.55;0.70;;;;;;;;;;5094413;28;20031;-82
2023/03/27 12:29:08;;;;;;;4.28;0.93;;;;;;;;;;5093713;28;20024;-77
2023/03/27 12:31:46;;;;;;;3.65;1.13;;;;;;;;;;5109679;28;20030;-78
2023/03/27 12:34:12;;;;;;;0.80;0.80;;;;;;;;;;5094252;28;20023;-73
2023/03/27 12:36:40;;;;;;;3.38;1.30;;;;;;;;;;5112174;28;20441;-82
2023/03/27 12:39:32;;;;;;;5.30;1.48;;;;;;;;;;5094112;28;20028;-85
2023/03/27 12:41:58;;;;;;;6.95;2.72;;;;;;;;;;5107652;28;20096;-84
2023/03/27 12:44:31;;;;;;;4.13;1.10;;;;;;;;;;5111814;28;20047;-78
2023/03/27 12:47:16;;;;;;;3.45;1.13;;;;;;;;;;5113198;28;20022;-82
2023/03/27 12:49:45;;;;;;;0.90;0.90;;;;;;;;;;5104208;28;20023;-73
2023/03/27 12:52:11;;;;;;;4.53;1.10;;;;;;;;;;5096027;28;20050;-81
2023/03/27 12:54:38;;;;;;;0.70;0.70;;;;;;;;;;5089965;28;20039;-76
2023/03/27 12:57:06;;;;;;;1.38;0.98;;;;;;;;;;5090751;28;20031;-84
2023/03/27 12:59:52;;;;;;;1.63;0.70;;;;;;;;;;5091975;28;20084;-75
2023/03/27 13:02:29;;;;;;;3.50;0.80;;;;;;;;;;5092404;28;20020;-73
2023/03/27 13:05:18;;;;;;;0.82;0.80;;;;;;;;;;5090847;28;20075;-77
2023/03/27 13:07:55;;;;;;;1.03;0.70;;;;;;;;;;5074452;28;20052;-80
2023/03/27 13:10:24;;;;;;;3.35;1.05;;;;;;;;;;5094292;28;20551;-82
2023/03/27 13:12:58;;;;;;;3.92;2.70;;;;;;;;;;5076021;28;20456;-74
2023/03/27 13:15:30;;;;;;;1.00;0.82;;;;;;;;;;5091695;28;20024;-80
2023/03/27 13:17:59;;;;;;;2.67;1.27;;;;;;;;;;5072479;28;20476;-78
2023/03/27 13:20:36;;;;;;;4.82;0.88;;;;;;;;;;5072514;28;20025;-74
2023/03/27 13:23:14;;;;;;;1.95;0.93;;;;;;;;;;5093672;28;20024;-74
2023/03/27 13:25:43;;;;;;;2.00;0.73;;;;;;;;;;5087607;28;20028;-74
2023/03/27 13:28:14;;;;;;;2.22;1.40;;;;;;;;;;5071144;28;20035;-81
2023/03/27 13:30:48;;;;;;;3.65;1.27;;;;;;;;;;5089417;28;20039;-74
2023/03/27 13:33:15;;;;;;;3.35;0.75;;;;;;;;;;5089154;28;20035;-74
2023/03/27 13:35:52;;;;;;;3.22;1.38;;;;;;;;;;5087207;28;20388;-73
2023/03/27 13:38:38;;;;;;;4.00;0.60;;;;;;;;;;5069249;28;20024;-80
2023/03/27 13:41:23;;;;;;;0.70;0.70;;;;;;;;;;5087511;28;20472;-79
2023/03/27 13:43:50;;;;;;;5.65;1.13;;;;;;;;;;5087703;28;20024;-82
2023/03/27 13:46:17;;;;;;;1.83;0.80;;;;;;;;;;5093097;28;20371;-77
2023/03/27 13:48:53;;;;;;;3.80;1.38;;;;;;;;;;5092992;28;20031;-81
2023/03/27 13:51:25;;;;;;;4.18;1.10;;;;;;;;;;5094405;28;20020;-73
2023/03/27 13:53:51;;;;;;;4.88;0.80;;;;;;;;;;5069456;28;20020;-72
2023/03/27 13:56:26;;;;;;;2.85;1.05;;;;;;;;;;5069014;28;20028;-81
2023/03/27 13:59:11;;;;;;;4.03;0.60;;;;;;;;;;5087249;28;20055;-76
2023/03/27 14:01:37;;;;;;;1.05;0.73;;;;;;;;;;5090137;28;20020;-84
2023/03/27 14:04:22;;;;;;;2.85;1.23;;;;;;;;;;5093030;28;20039;-80
2023/03/27 14:07:07;;;;;;;1.42;0.60;;;;;;;;;;5074553;28;20035;-74
2023/03/27 14:09:34;;;;;;;5.43;1.02;;;;;;;;;;5093153;28;20035;-82
2023/03/27 14:12:06;;;;;;;2.95;1.08;;;;;;;;;;5070412;28;20049;-73
2023/03/27 14:14:41;;;;;;;4.07;0.90;;;;;;;;;;5073036;28;20114;-85
2023/03/27 14:17:07;;;;;;;4.53;1.33;;;;;;;;;;5086836;28;20047;-79
2023/03/27 14:19:56;;;;;;;0.38;0.38;;;;;;;;;;5067917;28;20329;-74
2023/03/27 14:22:25;;;;;;;0.80;0.50;;;;;;;;;;5068193;28;20141;-76
2023/03/27 14:24:55;;;;;;;1.48;0.77;;;;;;;;;;5068095;28;20056;-73
2023/03/27 14:27:22;;;;;;;0.80;0.80;;;;;;;;;;5068252;28;20024;-80
2023/03/27 14:30:03;;;;;;;0.85;0.52;;;;;;;;;;5073865;28;20024;-82
2023/03/27 14:32:29;;;;;;;2.70;0.57;;;;;;;;;;5104128;28;20015;-76
2023/03/27 14:35:01;;;;;;;2.05;0.63;;;;;;;;;;5087732;28;20042;-78
2023/03/27 14:37:29;;;;;;;0.77;0.60;;;;;;;;;;5100862;28;20474;-74
2023/03/27 14:39:56;;;;;;;2.55;0.50;;;;;;;;;;5101607;28;20076;-72
2023/03/27 14:42:25;;;;;;;1.98;0.50;;;;;;;;;;5104229;28;20081;-75
2023/03/27 14:44:52;;;;;;;3.10;1.05;;;;;;;;;;5100368;28;20032;-74
2023/03/27 14:47:20;;;;;;;1.38;0.50;;;;;;;;;;5081939;28;20070;-73
2023/03/27 14:49:48;;;;;;;1.23;0.40;;;;;;;;;;5079587;28;20144;-73
2023/03/27 14:52:26;;;;;;;3.17;0.65;;;;;;;;;;5091576;28;20135;-81
2023/03/27 14:54:56;;;;;;;3.47;1.00;;;;;;;;;;5086106;28;20642;-79
2023/03/27 14:57:24;;;;;;;1.58;0.52;;;;;;;;;;5088246;28;20024;-74
2023/03/27 14:59:50;;;;;;;0.82;0.40;;;;;;;;;;5086440;28;20046;-74
2023/03/27 15:02:21;;;;;;;1.05;0.57;;;;;;;;;;5088073;28;20055;-83